This is the latest recevied weather packets stored in our database for station/object K1ABC. If no packets are shown the sender has not sent any weather packets the latest 10 day(s).
| Time | Temp. | Humidity | Pressure | Rain* | Wind** | Luminosity | Snow |
|---|---|---|---|---|---|---|---|
| 1778037397 | 20° C | 56% | 1008.3 hPa | 0 mm | - | - | - |
| 1778036833 | 20° C | 56% | 1008.2 hPa | 0 mm | - | - | - |
| 1778036333 | 20° C | 56% | 1008.2 hPa | 0 mm | - | - | - |
| 1778034942 | 20.56° C | 54% | 1008.2 hPa | 0 mm | - | - | - |
| 1778033756 | 21.11° C | 53% | 1008.3 hPa | 0 mm | - | - | - |
| 1778033309 | 21.11° C | 52% | 1008.3 hPa | 0 mm | - | - | - |
| 1778031954 | 21.11° C | 53% | 1008.3 hPa | 0 mm | - | - | - |
| 1778031829 | 21.11° C | 53% | 1008.3 hPa | 0 mm | - | - | - |
| 1778031706 | 21.11° C | 52% | 1008.3 hPa | 0 mm | - | - | - |
| 1778031459 | 21.11° C | 52% | 1008.3 hPa | 0 mm | - | - | - |
| 1778031005 | 21.11° C | 52% | 1008.3 hPa | 0 mm | - | - | - |
| 1778029858 | 21.67° C | 51% | 1008.3 hPa | 0 mm | - | - | - |
| 1778029728 | 21.67° C | 51% | 1008.2 hPa | 0 mm | - | - | - |
| 1778029226 | 21.67° C | 50% | 1007.5 hPa | 0 mm | - | - | - |
| 1778028765 | 21.67° C | 50% | 1007.3 hPa | 0 mm | - | - | - |
| 1778027615 | 22.22° C | 50% | 1006.9 hPa | 0 mm | - | - | - |
| 1778026995 | 22.22° C | 49% | 1006.5 hPa | 0 mm | - | - | - |
| 1778026663 | 22.22° C | 49% | 1006.4 hPa | 0 mm | - | - | - |
| 1778026534 | 22.22° C | 49% | 1006.4 hPa | 0 mm | - | - | - |
| 1778023680 | 23.89° C | 47% | 1005.5 hPa | 0 mm | - | - | - |
| 1778023433 | 23.89° C | 46% | 1005.4 hPa | 0 mm | - | - | - |
| 1778022534 | 24.44° C | 45% | 1005 hPa | 0 mm | - | - | - |
| 1778021767 | 24.44° C | 45% | 1005 hPa | 0 mm | - | - | - |
| 1778018968 | 26.11° C | 40% | 1004.3 hPa | 0 mm | - | - | - |
| 1778017111 | 27.22° C | 38% | 1004 hPa | 0 mm | - | - | - |
* Rain latest hour (hover to see other rain measurements)
** Current wind speed in m/s (hover to see current wind gust speed)